Terminal Aerodrome Forecast
Issued by NWS

Home | Current Version | Previous Version | Text Only | Print | Product List | Glossary On
Versions: 1 2 3 4 5 6 7 8 9 10 11 12
000
FTUS43 KFGF 021120
TAFTVF
TAF
KTVF 021120Z 0212/0312 17012KT P6SM BKN040
      TEMPO 0212/0214 -TSRA BKN040CB
     FM022300 15013KT P6SM -TSRA BKN040CB
     FM030600 34010KT P6SM BKN015
      AMD LTD TO CLD VIS AND WIND=

USA.gov is the U.S. government's official web portal to all federal, state and local government web resources and services.